Lewis, Colorado
Current Conditions -  °F | °C
As of 8:53 PM on Wednesday 26 Nov 2014 (Local Time) from KCEZ Reporting Station
Clear Clear  
Wind Chill: 19°   Ceiling: Unl
Heat Index: 27°   Visibility: 10mi
Dew Point: 19°   Wind: 7mph
Humidity: 72%   Direction: 60°ENE
Pressure: 30.44"   Gusts: NA
Location:  37.5°N, 108.66°W
Report Text: KCEZ 270353Z AUTO 06006KT 10SM CLR M03/M07 A3044 RMK AO2 SLP313 T10281072
Loading
Personal Weather Stations






























Interactive Weather Map New forecast layout! Learn more

10-Day Weather Forecast

Advertisements
Track Severe Weather on mobile